Terminal Aerodrome Forecast
Issued by NWS Charleston, WV

Current Version | Previous Version | Graphics & Text | Print | Product List | Glossary On
Versions: 1 2 3 4 5 6 7 8 9 10 11 12 13 14 15 16 17 18 19 20 21 22
000
FTUS41 KRLX 280543
TAFBKW
TAF
KBKW 280543Z 2806/2906 27007KT P6SM BKN025
     FM280800 32007KT P6SM BKN025
     FM281100 28007KT P6SM BKN025
     FM281300 28008KT P6SM SCT025
     FM282300 31005KT P6SM SCT250=

USA.gov is the U.S. government's official web portal to all federal, state and local government web resources and services.